메인 페이지
METAR-TAF:

METAR-TAF

공항 :

바르샤바 프레드릭 쇼팽 국제공항

바르샤바, 폴란드

위도: 52-10N, 경도: 020-58E, 고도: 106m

현재 날씨관측

예보는 10분 전, 01:00시(UTC)에 발표되었습니다.
여러 방향의 바람 2kt
온도 17°C
습도 94%
기압 1012 hPa
시정 10km 이상
1500m 미만 상공 구름 및 적란운 없음

METAR: EPWA 150100Z VRB02KT CAVOK 17/16 Q1012 NOSIG

시각: 03:10 (01:10 UTC)

예보

예보는 1 시간 40분 전, 23:30시(UTC)에 발표되었습니다.
예보 대상 시간: 15일 00시부터 15일 24시까지 (UTC)
서남서5kt
시정 10km 이상
1500m 미만 상공 구름 및 적란운 없음
확률 30%
15일 02시부터 15일 05시까지 (UTC)
시정: 4000m
박무
일시적
15일 09시부터 15일 17시까지 (UTC)
고도 3500ft 상공 구름 많음, 적란운.
약한소나기

TAF: EPWA 142330Z 1500/1524 25005KT CAVOK PROB30 1502/1505 4000 BR TEMPO 1509/1517 -SHRA BKN035CB

4,000개 이상의 공항 관측 자료 및 예보 (METAR 및 TAF 보고).

지도상에서 검색 가능한 기상관측소가 노란 점과 빨간 점으로 표시되어 있습니다.

기상관측소 명을 보려면 표시 위로 마우스를 이동하세요.

날씨 관측과 예보를 보려면 클릭하세요.

지도 변경 : 확대하려면 엑스 표시가 있는 녹색 버튼, 축소하려면 빼기 표시가 있는 녹색 버튼, 다음 페이지의 지도를 보려면 녹색 화살표를 클릭하세요.


METAR-TAF: